sensor_id;sensor_type;location;lat;lon;timestamp;P1;durP1;ratioP1;P2;durP2;ratioP2
22949;SDS011;11641;51.018;4.474;2023-03-14T00:01:58;5.63;;;1.00;;
22949;SDS011;11641;51.018;4.474;2023-03-14T00:04:26;6.05;;;0.82;;
22949;SDS011;11641;51.018;4.474;2023-03-14T00:06:54;9.35;;;1.38;;
22949;SDS011;11641;51.018;4.474;2023-03-14T00:09:20;2.35;;;0.50;;
22949;SDS011;11641;51.018;4.474;2023-03-14T00:11:45;7.40;;;0.95;;
22949;SDS011;11641;51.018;4.474;2023-03-14T00:14:14;6.20;;;1.05;;
22949;SDS011;11641;51.018;4.474;2023-03-14T00:16:41;7.72;;;1.15;;
22949;SDS011;11641;51.018;4.474;2023-03-14T00:19:10;4.82;;;1.00;;
22949;SDS011;11641;51.018;4.474;2023-03-14T00:21:36;3.45;;;0.70;;
22949;SDS011;11641;51.018;4.474;2023-03-14T00:24:01;3.72;;;0.63;;
22949;SDS011;11641;51.018;4.474;2023-03-14T00:26:27;8.10;;;1.27;;
22949;SDS011;11641;51.018;4.474;2023-03-14T00:28:53;3.95;;;1.15;;
22949;SDS011;11641;51.018;4.474;2023-03-14T00:31:19;6.78;;;0.90;;
22949;SDS011;11641;51.018;4.474;2023-03-14T00:33:47;8.50;;;1.15;;
22949;SDS011;11641;51.018;4.474;2023-03-14T00:36:18;5.47;;;1.10;;
22949;SDS011;11641;51.018;4.474;2023-03-14T00:38:46;9.43;;;1.85;;
22949;SDS011;11641;51.018;4.474;2023-03-14T00:41:14;9.35;;;0.98;;
22949;SDS011;11641;51.018;4.474;2023-03-14T00:43:43;11.25;;;0.88;;
22949;SDS011;11641;51.018;4.474;2023-03-14T00:46:12;10.18;;;1.30;;
22949;SDS011;11641;51.018;4.474;2023-03-14T00:48:38;7.45;;;1.27;;
22949;SDS011;11641;51.018;4.474;2023-03-14T00:51:04;9.75;;;1.13;;
22949;SDS011;11641;51.018;4.474;2023-03-14T00:53:34;5.95;;;1.08;;
22949;SDS011;11641;51.018;4.474;2023-03-14T00:56:05;9.77;;;1.40;;
22949;SDS011;11641;51.018;4.474;2023-03-14T00:58:32;9.40;;;1.60;;
22949;SDS011;11641;51.018;4.474;2023-03-14T01:00:58;9.93;;;1.40;;
22949;SDS011;11641;51.018;4.474;2023-03-14T01:03:23;8.25;;;0.90;;
22949;SDS011;11641;51.018;4.474;2023-03-14T01:05:50;7.78;;;1.27;;
22949;SDS011;11641;51.018;4.474;2023-03-14T01:08:15;9.57;;;1.50;;
22949;SDS011;11641;51.018;4.474;2023-03-14T01:10:43;14.48;;;1.90;;
22949;SDS011;11641;51.018;4.474;2023-03-14T01:13:09;14.77;;;1.70;;
22949;SDS011;11641;51.018;4.474;2023-03-14T01:15:35;9.38;;;1.33;;
22949;SDS011;11641;51.018;4.474;2023-03-14T01:18:02;10.23;;;1.38;;
22949;SDS011;11641;51.018;4.474;2023-03-14T01:20:28;7.15;;;1.42;;
22949;SDS011;11641;51.018;4.474;2023-03-14T01:22:54;9.10;;;1.13;;
22949;SDS011;11641;51.018;4.474;2023-03-14T01:25:21;9.23;;;2.00;;
22949;SDS011;11641;51.018;4.474;2023-03-14T01:27:47;9.38;;;1.55;;
22949;SDS011;11641;51.018;4.474;2023-03-14T01:30:13;11.27;;;1.50;;
22949;SDS011;11641;51.018;4.474;2023-03-14T01:32:39;10.38;;;1.40;;
22949;SDS011;11641;51.018;4.474;2023-03-14T01:35:05;8.48;;;1.35;;
22949;SDS011;11641;51.018;4.474;2023-03-14T01:37:31;9.93;;;1.27;;
22949;SDS011;11641;51.018;4.474;2023-03-14T01:39:57;9.93;;;1.55;;
22949;SDS011;11641;51.018;4.474;2023-03-14T01:42:22;8.07;;;1.52;;
22949;SDS011;11641;51.018;4.474;2023-03-14T01:47:18;10.68;;;1.65;;
22949;SDS011;11641;51.018;4.474;2023-03-14T01:49:45;9.43;;;1.40;;
22949;SDS011;11641;51.018;4.474;2023-03-14T01:55:14;8.18;;;1.73;;
22949;SDS011;11641;51.018;4.474;2023-03-14T01:57:45;9.63;;;1.52;;
22949;SDS011;11641;51.018;4.474;2023-03-14T02:00:18;8.43;;;1.80;;
22949;SDS011;11641;51.018;4.474;2023-03-14T02:02:47;8.48;;;1.30;;
22949;SDS011;11641;51.018;4.474;2023-03-14T02:05:37;7.47;;;1.48;;
22949;SDS011;11641;51.018;4.474;2023-03-14T02:08:10;6.10;;;1.15;;
22949;SDS011;11641;51.018;4.474;2023-03-14T02:10:39;7.10;;;0.90;;
22949;SDS011;11641;51.018;4.474;2023-03-14T02:13:10;10.52;;;1.42;;
22949;SDS011;11641;51.018;4.474;2023-03-14T02:15:37;14.40;;;1.40;;
22949;SDS011;11641;51.018;4.474;2023-03-14T02:18:07;12.10;;;1.40;;
22949;SDS011;11641;51.018;4.474;2023-03-14T02:23:15;8.25;;;1.00;;
22949;SDS011;11641;51.018;4.474;2023-03-14T02:28:32;8.10;;;1.55;;
22949;SDS011;11641;51.018;4.474;2023-03-14T02:30:58;8.02;;;1.20;;
22949;SDS011;11641;51.018;4.474;2023-03-14T02:33:24;6.10;;;1.10;;
22949;SDS011;11641;51.018;4.474;2023-03-14T02:35:56;4.25;;;1.02;;
22949;SDS011;11641;51.018;4.474;2023-03-14T02:41:02;4.85;;;0.70;;
22949;SDS011;11641;51.018;4.474;2023-03-14T02:43:28;3.60;;;0.63;;
22949;SDS011;11641;51.018;4.474;2023-03-14T02:45:54;2.13;;;0.40;;
22949;SDS011;11641;51.018;4.474;2023-03-14T02:48:28;4.50;;;0.50;;
22949;SDS011;11641;51.018;4.474;2023-03-14T02:50:56;2.95;;;0.50;;
22949;SDS011;11641;51.018;4.474;2023-03-14T02:53:28;5.13;;;0.90;;
22949;SDS011;11641;51.018;4.474;2023-03-14T02:55:56;6.15;;;1.20;;
22949;SDS011;11641;51.018;4.474;2023-03-14T02:58:22;4.25;;;0.85;;
22949;SDS011;11641;51.018;4.474;2023-03-14T03:00:48;6.82;;;0.85;;
22949;SDS011;11641;51.018;4.474;2023-03-14T03:03:14;7.57;;;1.48;;
22949;SDS011;11641;51.018;4.474;2023-03-14T03:05:40;4.95;;;0.90;;
22949;SDS011;11641;51.018;4.474;2023-03-14T03:08:07;7.00;;;1.10;;
22949;SDS011;11641;51.018;4.474;2023-03-14T03:10:33;13.25;;;1.40;;
22949;SDS011;11641;51.018;4.474;2023-03-14T03:12:59;10.43;;;1.20;;
22949;SDS011;11641;51.018;4.474;2023-03-14T03:15:25;4.55;;;0.98;;
22949;SDS011;11641;51.018;4.474;2023-03-14T03:17:51;7.78;;;0.90;;
22949;SDS011;11641;51.018;4.474;2023-03-14T03:20:17;4.53;;;1.00;;
22949;SDS011;11641;51.018;4.474;2023-03-14T03:22:43;7.25;;;1.63;;
22949;SDS011;11641;51.018;4.474;2023-03-14T03:25:09;7.13;;;1.80;;
22949;SDS011;11641;51.018;4.474;2023-03-14T03:27:37;6.35;;;2.00;;
22949;SDS011;11641;51.018;4.474;2023-03-14T03:30:04;6.85;;;2.70;;
22949;SDS011;11641;51.018;4.474;2023-03-14T03:32:31;7.18;;;2.45;;
22949;SDS011;11641;51.018;4.474;2023-03-14T03:34:57;9.23;;;2.90;;
22949;SDS011;11641;51.018;4.474;2023-03-14T03:37:22;5.38;;;2.50;;
22949;SDS011;11641;51.018;4.474;2023-03-14T03:39:51;12.50;;;3.10;;
22949;SDS011;11641;51.018;4.474;2023-03-14T03:42:19;9.43;;;2.88;;
22949;SDS011;11641;51.018;4.474;2023-03-14T03:44:45;8.90;;;2.90;;
22949;SDS011;11641;51.018;4.474;2023-03-14T03:47:10;11.07;;;3.40;;
22949;SDS011;11641;51.018;4.474;2023-03-14T03:49:36;9.75;;;2.83;;
22949;SDS011;11641;51.018;4.474;2023-03-14T03:52:02;12.02;;;2.78;;
22949;SDS011;11641;51.018;4.474;2023-03-14T03:54:27;8.60;;;2.92;;
22949;SDS011;11641;51.018;4.474;2023-03-14T03:56:54;12.25;;;2.90;;
22949;SDS011;11641;51.018;4.474;2023-03-14T03:59:22;8.52;;;2.40;;
22949;SDS011;11641;51.018;4.474;2023-03-14T04:01:48;9.05;;;2.55;;
22949;SDS011;11641;51.018;4.474;2023-03-14T04:04:16;8.38;;;2.72;;
22949;SDS011;11641;51.018;4.474;2023-03-14T04:06:42;8.18;;;2.50;;
22949;SDS011;11641;51.018;4.474;2023-03-14T04:09:10;6.75;;;2.30;;
22949;SDS011;11641;51.018;4.474;2023-03-14T04:11:39;10.25;;;2.10;;
22949;SDS011;11641;51.018;4.474;2023-03-14T04:14:04;9.43;;;2.38;;
22949;SDS011;11641;51.018;4.474;2023-03-14T04:16:30;8.85;;;2.17;;
22949;SDS011;11641;51.018;4.474;2023-03-14T04:18:56;10.98;;;2.63;;
22949;SDS011;11641;51.018;4.474;2023-03-14T04:21:22;7.60;;;2.50;;
22949;SDS011;11641;51.018;4.474;2023-03-14T04:23:49;8.80;;;2.00;;
22949;SDS011;11641;51.018;4.474;2023-03-14T04:26:15;11.70;;;1.90;;
22949;SDS011;11641;51.018;4.474;2023-03-14T04:28:43;8.20;;;1.63;;
22949;SDS011;11641;51.018;4.474;2023-03-14T04:31:09;10.00;;;2.90;;
22949;SDS011;11641;51.018;4.474;2023-03-14T04:33:40;10.85;;;2.22;;
22949;SDS011;11641;51.018;4.474;2023-03-14T04:36:06;11.90;;;1.90;;
22949;SDS011;11641;51.018;4.474;2023-03-14T04:38:33;7.78;;;1.90;;
22949;SDS011;11641;51.018;4.474;2023-03-14T04:40:59;8.63;;;1.90;;
22949;SDS011;11641;51.018;4.474;2023-03-14T04:43:25;6.00;;;1.52;;
22949;SDS011;11641;51.018;4.474;2023-03-14T04:45:53;9.98;;;1.50;;
22949;SDS011;11641;51.018;4.474;2023-03-14T04:48:22;7.18;;;1.42;;
22949;SDS011;11641;51.018;4.474;2023-03-14T04:50:48;5.95;;;1.27;;
22949;SDS011;11641;51.018;4.474;2023-03-14T04:53:14;9.23;;;1.27;;
22949;SDS011;11641;51.018;4.474;2023-03-14T04:55:46;5.60;;;1.52;;
22949;SDS011;11641;51.018;4.474;2023-03-14T04:58:13;5.80;;;1.33;;
22949;SDS011;11641;51.018;4.474;2023-03-14T05:00:38;8.07;;;1.52;;
22949;SDS011;11641;51.018;4.474;2023-03-14T05:03:07;9.13;;;1.73;;
22949;SDS011;11641;51.018;4.474;2023-03-14T05:05:32;6.70;;;0.95;;
22949;SDS011;11641;51.018;4.474;2023-03-14T05:08:00;4.72;;;1.42;;
22949;SDS011;11641;51.018;4.474;2023-03-14T05:10:29;4.47;;;1.17;;
22949;SDS011;11641;51.018;4.474;2023-03-14T05:12:55;6.80;;;1.35;;
22949;SDS011;11641;51.018;4.474;2023-03-14T05:15:20;6.22;;;1.38;;
22949;SDS011;11641;51.018;4.474;2023-03-14T05:17:46;5.15;;;1.45;;
22949;SDS011;11641;51.018;4.474;2023-03-14T05:20:13;4.47;;;1.38;;
22949;SDS011;11641;51.018;4.474;2023-03-14T05:22:42;2.13;;;1.08;;
22949;SDS011;11641;51.018;4.474;2023-03-14T05:25:08;3.75;;;1.40;;
22949;SDS011;11641;51.018;4.474;2023-03-14T05:27:34;6.47;;;1.67;;
22949;SDS011;11641;51.018;4.474;2023-03-14T05:30:01;4.70;;;1.45;;
22949;SDS011;11641;51.018;4.474;2023-03-14T05:32:28;6.35;;;1.52;;
22949;SDS011;11641;51.018;4.474;2023-03-14T05:34:55;5.10;;;1.30;;
22949;SDS011;11641;51.018;4.474;2023-03-14T05:37:27;4.43;;;1.60;;
22949;SDS011;11641;51.018;4.474;2023-03-14T05:39:53;4.10;;;1.30;;
22949;SDS011;11641;51.018;4.474;2023-03-14T05:42:19;5.03;;;1.58;;
22949;SDS011;11641;51.018;4.474;2023-03-14T05:44:45;5.68;;;1.63;;
22949;SDS011;11641;51.018;4.474;2023-03-14T05:47:10;6.05;;;1.85;;
22949;SDS011;11641;51.018;4.474;2023-03-14T05:49:36;5.30;;;1.70;;
22949;SDS011;11641;51.018;4.474;2023-03-14T05:52:01;4.15;;;1.50;;
22949;SDS011;11641;51.018;4.474;2023-03-14T05:54:27;4.28;;;1.77;;
22949;SDS011;11641;51.018;4.474;2023-03-14T05:56:53;6.47;;;1.80;;
22949;SDS011;11641;51.018;4.474;2023-03-14T05:59:21;4.72;;;1.75;;
22949;SDS011;11641;51.018;4.474;2023-03-14T06:01:46;3.08;;;1.63;;
22949;SDS011;11641;51.018;4.474;2023-03-14T06:04:14;5.50;;;1.80;;
22949;SDS011;11641;51.018;4.474;2023-03-14T06:06:42;6.05;;;1.83;;
22949;SDS011;11641;51.018;4.474;2023-03-14T06:09:08;4.13;;;1.80;;
22949;SDS011;11641;51.018;4.474;2023-03-14T06:11:33;3.88;;;2.17;;
22949;SDS011;11641;51.018;4.474;2023-03-14T06:14:01;3.80;;;1.92;;
22949;SDS011;11641;51.018;4.474;2023-03-14T06:16:27;4.38;;;1.63;;
22949;SDS011;11641;51.018;4.474;2023-03-14T06:18:52;3.67;;;1.77;;
22949;SDS011;11641;51.018;4.474;2023-03-14T06:21:18;4.97;;;2.17;;
22949;SDS011;11641;51.018;4.474;2023-03-14T06:23:46;8.70;;;2.08;;
22949;SDS011;11641;51.018;4.474;2023-03-14T06:26:15;3.83;;;1.75;;
22949;SDS011;11641;51.018;4.474;2023-03-14T06:28:40;7.10;;;1.90;;
22949;SDS011;11641;51.018;4.474;2023-03-14T06:31:08;2.83;;;1.70;;
22949;SDS011;11641;51.018;4.474;2023-03-14T06:33:34;4.80;;;1.90;;
22949;SDS011;11641;51.018;4.474;2023-03-14T06:36:00;2.65;;;1.45;;
22949;SDS011;11641;51.018;4.474;2023-03-14T06:38:25;4.15;;;1.77;;
22949;SDS011;11641;51.018;4.474;2023-03-14T06:40:53;7.28;;;2.30;;
22949;SDS011;11641;51.018;4.474;2023-03-14T06:43:19;5.03;;;2.30;;
22949;SDS011;11641;51.018;4.474;2023-03-14T06:45:45;6.88;;;2.28;;
22949;SDS011;11641;51.018;4.474;2023-03-14T06:48:12;5.60;;;2.20;;
22949;SDS011;11641;51.018;4.474;2023-03-14T06:50:38;3.55;;;1.50;;
22949;SDS011;11641;51.018;4.474;2023-03-14T06:53:04;1.50;;;0.85;;
22949;SDS011;11641;51.018;4.474;2023-03-14T06:55:29;2.45;;;0.80;;
22949;SDS011;11641;51.018;4.474;2023-03-14T06:57:55;0.50;;;0.40;;
22949;SDS011;11641;51.018;4.474;2023-03-14T07:00:21;2.28;;;0.75;;
22949;SDS011;11641;51.018;4.474;2023-03-14T07:02:47;3.05;;;1.05;;
22949;SDS011;11641;51.018;4.474;2023-03-14T07:05:14;3.03;;;0.63;;
22949;SDS011;11641;51.018;4.474;2023-03-14T07:07:40;3.72;;;1.20;;
22949;SDS011;11641;51.018;4.474;2023-03-14T07:10:06;3.40;;;0.95;;
22949;SDS011;11641;51.018;4.474;2023-03-14T07:12:33;2.80;;;0.65;;
22949;SDS011;11641;51.018;4.474;2023-03-14T07:14:59;8.52;;;1.60;;
22949;SDS011;11641;51.018;4.474;2023-03-14T07:17:25;4.28;;;0.65;;
22949;SDS011;11641;51.018;4.474;2023-03-14T07:19:50;2.25;;;0.80;;
22949;SDS011;11641;51.018;4.474;2023-03-14T07:22:16;4.57;;;0.90;;
22949;SDS011;11641;51.018;4.474;2023-03-14T07:24:41;7.85;;;0.90;;
22949;SDS011;11641;51.018;4.474;2023-03-14T07:27:07;1.65;;;0.70;;
22949;SDS011;11641;51.018;4.474;2023-03-14T07:29:33;2.05;;;0.75;;
22949;SDS011;11641;51.018;4.474;2023-03-14T07:31:58;4.80;;;0.80;;
22949;SDS011;11641;51.018;4.474;2023-03-14T07:34:24;5.07;;;1.38;;
22949;SDS011;11641;51.018;4.474;2023-03-14T07:36:52;3.58;;;1.35;;
22949;SDS011;11641;51.018;4.474;2023-03-14T07:39:18;5.20;;;1.52;;
22949;SDS011;11641;51.018;4.474;2023-03-14T07:41:43;4.45;;;1.27;;
22949;SDS011;11641;51.018;4.474;2023-03-14T07:44:09;7.45;;;1.60;;
22949;SDS011;11641;51.018;4.474;2023-03-14T07:46:37;7.40;;;1.48;;
22949;SDS011;11641;51.018;4.474;2023-03-14T07:49:03;3.92;;;1.38;;
22949;SDS011;11641;51.018;4.474;2023-03-14T07:51:30;8.10;;;1.20;;
22949;SDS011;11641;51.018;4.474;2023-03-14T07:53:59;7.47;;;1.63;;
22949;SDS011;11641;51.018;4.474;2023-03-14T07:56:24;10.43;;;1.70;;
22949;SDS011;11641;51.018;4.474;2023-03-14T07:58:52;4.78;;;1.08;;
22949;SDS011;11641;51.018;4.474;2023-03-14T08:01:18;7.10;;;1.52;;
22949;SDS011;11641;51.018;4.474;2023-03-14T08:03:43;10.68;;;1.65;;
22949;SDS011;11641;51.018;4.474;2023-03-14T08:06:09;4.22;;;1.50;;
22949;SDS011;11641;51.018;4.474;2023-03-14T08:08:35;5.60;;;1.58;;
22949;SDS011;11641;51.018;4.474;2023-03-14T08:11:04;6.93;;;1.60;;
22949;SDS011;11641;51.018;4.474;2023-03-14T08:13:33;6.65;;;1.75;;
22949;SDS011;11641;51.018;4.474;2023-03-14T08:15:59;4.80;;;1.35;;
22949;SDS011;11641;51.018;4.474;2023-03-14T08:18:25;3.70;;;1.23;;
22949;SDS011;11641;51.018;4.474;2023-03-14T08:20:51;5.63;;;1.58;;
22949;SDS011;11641;51.018;4.474;2023-03-14T08:23:19;5.22;;;1.40;;
22949;SDS011;11641;51.018;4.474;2023-03-14T08:25:44;7.40;;;1.42;;
22949;SDS011;11641;51.018;4.474;2023-03-14T08:28:10;4.57;;;1.38;;
22949;SDS011;11641;51.018;4.474;2023-03-14T08:30:36;3.55;;;1.38;;
22949;SDS011;11641;51.018;4.474;2023-03-14T08:33:01;4.65;;;1.00;;
22949;SDS011;11641;51.018;4.474;2023-03-14T08:35:27;1.38;;;0.93;;
22949;SDS011;11641;51.018;4.474;2023-03-14T08:37:55;6.63;;;1.27;;
22949;SDS011;11641;51.018;4.474;2023-03-14T08:40:21;6.47;;;1.73;;
22949;SDS011;11641;51.018;4.474;2023-03-14T08:42:47;3.63;;;1.35;;
22949;SDS011;11641;51.018;4.474;2023-03-14T08:45:13;3.17;;;1.20;;
22949;SDS011;11641;51.018;4.474;2023-03-14T08:47:41;3.92;;;1.23;;
22949;SDS011;11641;51.018;4.474;2023-03-14T08:50:07;5.00;;;1.10;;
22949;SDS011;11641;51.018;4.474;2023-03-14T08:52:34;4.10;;;1.20;;
22949;SDS011;11641;51.018;4.474;2023-03-14T08:55:05;5.03;;;1.10;;
22949;SDS011;11641;51.018;4.474;2023-03-14T08:57:32;6.47;;;0.98;;
22949;SDS011;11641;51.018;4.474;2023-03-14T09:00:00;2.95;;;0.82;;
22949;SDS011;11641;51.018;4.474;2023-03-14T09:02:25;1.92;;;0.85;;
22949;SDS011;11641;51.018;4.474;2023-03-14T09:04:51;6.85;;;1.10;;
22949;SDS011;11641;51.018;4.474;2023-03-14T09:07:18;4.43;;;0.93;;
22949;SDS011;11641;51.018;4.474;2023-03-14T09:09:44;7.40;;;1.20;;
22949;SDS011;11641;51.018;4.474;2023-03-14T09:12:14;2.72;;;0.70;;
22949;SDS011;11641;51.018;4.474;2023-03-14T09:14:40;5.50;;;1.08;;
22949;SDS011;11641;51.018;4.474;2023-03-14T09:17:06;5.32;;;1.17;;
22949;SDS011;11641;51.018;4.474;2023-03-14T09:19:36;6.10;;;1.63;;
22949;SDS011;11641;51.018;4.474;2023-03-14T09:22:02;5.85;;;1.88;;
22949;SDS011;11641;51.018;4.474;2023-03-14T09:24:28;8.65;;;2.95;;
22949;SDS011;11641;51.018;4.474;2023-03-14T09:26:54;4.50;;;2.25;;
22949;SDS011;11641;51.018;4.474;2023-03-14T09:29:21;4.38;;;2.33;;
22949;SDS011;11641;51.018;4.474;2023-03-14T09:31:46;6.90;;;2.90;;
22949;SDS011;11641;51.018;4.474;2023-03-14T09:34:12;10.80;;;3.20;;
22949;SDS011;11641;51.018;4.474;2023-03-14T09:36:38;5.38;;;2.13;;
22949;SDS011;11641;51.018;4.474;2023-03-14T09:39:04;6.18;;;2.63;;
22949;SDS011;11641;51.018;4.474;2023-03-14T09:41:33;4.97;;;2.30;;
22949;SDS011;11641;51.018;4.474;2023-03-14T09:44:03;8.50;;;2.78;;
22949;SDS011;11641;51.018;4.474;2023-03-14T09:46:50;8.43;;;2.85;;
22949;SDS011;11641;51.018;4.474;2023-03-14T09:51:51;4.82;;;2.33;;
22949;SDS011;11641;51.018;4.474;2023-03-14T09:57:12;11.38;;;3.03;;
22949;SDS011;11641;51.018;4.474;2023-03-14T09:59:41;7.25;;;3.47;;
22949;SDS011;11641;51.018;4.474;2023-03-14T10:04:49;4.95;;;2.33;;
22949;SDS011;11641;51.018;4.474;2023-03-14T10:09:57;5.25;;;2.35;;
22949;SDS011;11641;51.018;4.474;2023-03-14T10:12:34;6.13;;;2.30;;
22949;SDS011;11641;51.018;4.474;2023-03-14T10:15:22;4.75;;;2.17;;
22949;SDS011;11641;51.018;4.474;2023-03-14T10:17:55;3.20;;;1.42;;
22949;SDS011;11641;51.018;4.474;2023-03-14T10:22:57;3.05;;;1.73;;
22949;SDS011;11641;51.018;4.474;2023-03-14T10:25:28;3.28;;;2.00;;
22949;SDS011;11641;51.018;4.474;2023-03-14T10:28:00;7.65;;;1.98;;
22949;SDS011;11641;51.018;4.474;2023-03-14T10:30:30;4.15;;;1.77;;
22949;SDS011;11641;51.018;4.474;2023-03-14T10:32:56;2.10;;;0.95;;
22949;SDS011;11641;51.018;4.474;2023-03-14T10:35:22;2.42;;;0.80;;
22949;SDS011;11641;51.018;4.474;2023-03-14T10:37:58;1.80;;;0.80;;
22949;SDS011;11641;51.018;4.474;2023-03-14T10:40:38;3.75;;;0.93;;
22949;SDS011;11641;51.018;4.474;2023-03-14T10:43:07;2.83;;;1.20;;
22949;SDS011;11641;51.018;4.474;2023-03-14T10:45:41;1.95;;;0.88;;
22949;SDS011;11641;51.018;4.474;2023-03-14T10:53:16;1.45;;;0.80;;
22949;SDS011;11641;51.018;4.474;2023-03-14T10:55:44;1.02;;;0.70;;
22949;SDS011;11641;51.018;4.474;2023-03-14T11:01:00;3.28;;;0.70;;
22949;SDS011;11641;51.018;4.474;2023-03-14T11:03:27;1.30;;;0.93;;
22949;SDS011;11641;51.018;4.474;2023-03-14T11:06:04;4.10;;;1.15;;
22949;SDS011;11641;51.018;4.474;2023-03-14T11:09:00;3.15;;;1.05;;
22949;SDS011;11641;51.018;4.474;2023-03-14T11:11:33;2.03;;;0.70;;
22949;SDS011;11641;51.018;4.474;2023-03-14T11:16:54;3.95;;;2.13;;
22949;SDS011;11641;51.018;4.474;2023-03-14T11:19:39;3.20;;;0.80;;
22949;SDS011;11641;51.018;4.474;2023-03-14T11:22:20;2.80;;;0.88;;
22949;SDS011;11641;51.018;4.474;2023-03-14T11:24:58;2.15;;;0.80;;
22949;SDS011;11641;51.018;4.474;2023-03-14T11:28:01;4.45;;;0.88;;
22949;SDS011;11641;51.018;4.474;2023-03-14T11:30:55;2.47;;;0.90;;
22949;SDS011;11641;51.018;4.474;2023-03-14T11:33:39;4.00;;;1.00;;
22949;SDS011;11641;51.018;4.474;2023-03-14T11:36:33;4.45;;;1.25;;
22949;SDS011;11641;51.018;4.474;2023-03-14T11:39:07;4.43;;;1.10;;
22949;SDS011;11641;51.018;4.474;2023-03-14T11:41:54;3.75;;;1.33;;
22949;SDS011;11641;51.018;4.474;2023-03-14T11:57:23;2.78;;;1.00;;
22949;SDS011;11641;51.018;4.474;2023-03-14T12:07:30;4.60;;;0.93;;
22949;SDS011;11641;51.018;4.474;2023-03-14T12:10:04;5.32;;;1.38;;
22949;SDS011;11641;51.018;4.474;2023-03-14T12:12:30;8.95;;;1.55;;
22949;SDS011;11641;51.018;4.474;2023-03-14T12:15:00;9.02;;;1.65;;
22949;SDS011;11641;51.018;4.474;2023-03-14T12:17:38;6.13;;;1.30;;
22949;SDS011;11641;51.018;4.474;2023-03-14T12:22:49;8.57;;;1.65;;
22949;SDS011;11641;51.018;4.474;2023-03-14T12:25:20;10.85;;;1.50;;
22949;SDS011;11641;51.018;4.474;2023-03-14T12:35:43;10.15;;;2.45;;
22949;SDS011;11641;51.018;4.474;2023-03-14T12:40:54;11.85;;;2.03;;
22949;SDS011;11641;51.018;4.474;2023-03-14T12:43:36;8.57;;;1.75;;
22949;SDS011;11641;51.018;4.474;2023-03-14T12:48:43;7.78;;;1.55;;
22949;SDS011;11641;51.018;4.474;2023-03-14T12:51:14;13.00;;;1.90;;
22949;SDS011;11641;51.018;4.474;2023-03-14T13:04:34;16.00;;;2.35;;
22949;SDS011;11641;51.018;4.474;2023-03-14T13:07:01;15.10;;;2.20;;
22949;SDS011;11641;51.018;4.474;2023-03-14T13:11:55;15.10;;;2.55;;
22949;SDS011;11641;51.018;4.474;2023-03-14T13:14:28;18.52;;;2.33;;
22949;SDS011;11641;51.018;4.474;2023-03-14T13:16:55;16.23;;;2.67;;
22949;SDS011;11641;51.018;4.474;2023-03-14T13:19:24;19.20;;;3.05;;
22949;SDS011;11641;51.018;4.474;2023-03-14T13:22:02;17.00;;;2.70;;
22949;SDS011;11641;51.018;4.474;2023-03-14T13:24:32;19.33;;;2.25;;
22949;SDS011;11641;51.018;4.474;2023-03-14T13:26:59;20.98;;;2.60;;
22949;SDS011;11641;51.018;4.474;2023-03-14T13:29:26;17.38;;;2.85;;
22949;SDS011;11641;51.018;4.474;2023-03-14T13:31:54;17.83;;;2.83;;
22949;SDS011;11641;51.018;4.474;2023-03-14T13:34:24;17.38;;;2.35;;
22949;SDS011;11641;51.018;4.474;2023-03-14T13:36:54;20.58;;;3.38;;
22949;SDS011;11641;51.018;4.474;2023-03-14T13:39:21;17.40;;;2.42;;
22949;SDS011;11641;51.018;4.474;2023-03-14T13:41:50;24.50;;;2.80;;
22949;SDS011;11641;51.018;4.474;2023-03-14T13:44:17;21.60;;;3.53;;
22949;SDS011;11641;51.018;4.474;2023-03-14T13:47:01;17.20;;;2.53;;
22949;SDS011;11641;51.018;4.474;2023-03-14T13:49:29;19.47;;;2.20;;
22949;SDS011;11641;51.018;4.474;2023-03-14T13:52:00;19.73;;;2.70;;
22949;SDS011;11641;51.018;4.474;2023-03-14T13:54:27;13.35;;;2.08;;
22949;SDS011;11641;51.018;4.474;2023-03-14T13:57:05;11.20;;;1.92;;
22949;SDS011;11641;51.018;4.474;2023-03-14T13:59:32;13.38;;;2.72;;
22949;SDS011;11641;51.018;4.474;2023-03-14T14:02:00;13.68;;;2.05;;
22949;SDS011;11641;51.018;4.474;2023-03-14T14:04:32;15.43;;;1.80;;
22949;SDS011;11641;51.018;4.474;2023-03-14T14:07:00;5.57;;;1.20;;
22949;SDS011;11641;51.018;4.474;2023-03-14T14:13:10;12.20;;;1.40;;
22949;SDS011;11641;51.018;4.474;2023-03-14T14:15:41;6.57;;;1.30;;
22949;SDS011;11641;51.018;4.474;2023-03-14T14:18:10;7.95;;;1.13;;
22949;SDS011;11641;51.018;4.474;2023-03-14T14:20:41;12.82;;;1.70;;
22949;SDS011;11641;51.018;4.474;2023-03-14T14:23:15;8.82;;;1.35;;
22949;SDS011;11641;51.018;4.474;2023-03-14T14:25:44;7.40;;;1.83;;
22949;SDS011;11641;51.018;4.474;2023-03-14T14:31:23;8.32;;;1.20;;
22949;SDS011;11641;51.018;4.474;2023-03-14T14:36:25;4.60;;;0.70;;
22949;SDS011;11641;51.018;4.474;2023-03-14T14:39:01;2.22;;;0.45;;
22949;SDS011;11641;51.018;4.474;2023-03-14T14:41:39;7.00;;;0.63;;
22949;SDS011;11641;51.018;4.474;2023-03-14T14:44:06;8.20;;;0.40;;
22949;SDS011;11641;51.018;4.474;2023-03-14T14:46:33;2.92;;;0.40;;
22949;SDS011;11641;51.018;4.474;2023-03-14T14:49:10;4.28;;;0.70;;
22949;SDS011;11641;51.018;4.474;2023-03-14T14:51:42;3.85;;;0.95;;
22949;SDS011;11641;51.018;4.474;2023-03-14T14:54:11;4.25;;;0.55;;
22949;SDS011;11641;51.018;4.474;2023-03-14T14:56:38;2.00;;;0.55;;
22949;SDS011;11641;51.018;4.474;2023-03-14T14:59:05;3.63;;;0.50;;
22949;SDS011;11641;51.018;4.474;2023-03-14T15:01:43;5.35;;;0.55;;
22949;SDS011;11641;51.018;4.474;2023-03-14T15:04:13;2.97;;;1.08;;
22949;SDS011;11641;51.018;4.474;2023-03-14T15:06:41;3.75;;;0.75;;
22949;SDS011;11641;51.018;4.474;2023-03-14T15:09:11;3.53;;;0.75;;
22949;SDS011;11641;51.018;4.474;2023-03-14T15:11:37;9.50;;;1.30;;
22949;SDS011;11641;51.018;4.474;2023-03-14T15:14:03;2.97;;;0.70;;
22949;SDS011;11641;51.018;4.474;2023-03-14T15:16:29;4.95;;;0.90;;
22949;SDS011;11641;51.018;4.474;2023-03-14T15:19:01;5.22;;;0.88;;
22949;SDS011;11641;51.018;4.474;2023-03-14T15:21:30;11.93;;;1.10;;
22949;SDS011;11641;51.018;4.474;2023-03-14T15:23:59;6.63;;;1.02;;
22949;SDS011;11641;51.018;4.474;2023-03-14T15:26:26;4.93;;;0.80;;
22949;SDS011;11641;51.018;4.474;2023-03-14T15:28:54;7.18;;;1.00;;
22949;SDS011;11641;51.018;4.474;2023-03-14T15:31:20;11.15;;;1.27;;
22949;SDS011;11641;51.018;4.474;2023-03-14T15:33:46;9.52;;;1.55;;
22949;SDS011;11641;51.018;4.474;2023-03-14T15:36:23;12.55;;;1.17;;
22949;SDS011;11641;51.018;4.474;2023-03-14T15:38:55;9.48;;;1.50;;
22949;SDS011;11641;51.018;4.474;2023-03-14T15:41:22;5.13;;;1.10;;
22949;SDS011;11641;51.018;4.474;2023-03-14T15:43:48;8.05;;;1.50;;
22949;SDS011;11641;51.018;4.474;2023-03-14T15:46:17;14.20;;;1.70;;
22949;SDS011;11641;51.018;4.474;2023-03-14T15:48:44;16.27;;;2.47;;
22949;SDS011;11641;51.018;4.474;2023-03-14T15:51:10;11.80;;;1.80;;
22949;SDS011;11641;51.018;4.474;2023-03-14T15:53:39;10.85;;;1.63;;
22949;SDS011;11641;51.018;4.474;2023-03-14T15:56:11;10.15;;;1.52;;
22949;SDS011;11641;51.018;4.474;2023-03-14T15:58:42;8.88;;;1.52;;
22949;SDS011;11641;51.018;4.474;2023-03-14T16:01:11;11.23;;;1.75;;
22949;SDS011;11641;51.018;4.474;2023-03-14T16:03:38;8.70;;;1.25;;
22949;SDS011;11641;51.018;4.474;2023-03-14T16:06:04;10.30;;;1.52;;
22949;SDS011;11641;51.018;4.474;2023-03-14T16:08:30;13.70;;;1.75;;
22949;SDS011;11641;51.018;4.474;2023-03-14T16:10:59;11.65;;;1.63;;
22949;SDS011;11641;51.018;4.474;2023-03-14T16:13:27;11.95;;;1.25;;
22949;SDS011;11641;51.018;4.474;2023-03-14T16:15:57;12.43;;;1.60;;
22949;SDS011;11641;51.018;4.474;2023-03-14T16:18:25;11.48;;;1.65;;
22949;SDS011;11641;51.018;4.474;2023-03-14T16:20:57;9.60;;;2.60;;
22949;SDS011;11641;51.018;4.474;2023-03-14T16:23:24;13.90;;;1.65;;
22949;SDS011;11641;51.018;4.474;2023-03-14T16:25:51;11.88;;;2.15;;
22949;SDS011;11641;51.018;4.474;2023-03-14T16:28:20;12.85;;;1.90;;
22949;SDS011;11641;51.018;4.474;2023-03-14T16:30:48;11.85;;;1.75;;